Ascension Island, Ascension Island

4:54 PM GMT on February 09, 2016 (GMT +0000)
Ascension Aux Air Base / Wideawake Field | | Change Station
CLOSE
Current Station
Airport
Location: Ascension Island,
Elevation: 259 ft
Nearby Weather Stations

Elev 259 ft 7.97 °S, 14.41 °W | Updated 4 minutes ago

Scattered Clouds
Scattered Clouds
86 °F
Feels Like 93 °F
N
18
Wind Variable Wind from South

Today
High -- | Low -- °F
--% Chance of Precip.
Yesterday
High -- | Low -- °F
Precip. -- in
Pressure 29.92 in
Visibility 6.2 miles
Clouds Few 1600 ft
Scattered Clouds 2800 ft
Heat Index 93 °F
Dew Point 73 °F
Humidity 66%
Rainfall 0.00 in
Snow Depth Not available.
6:59 AM 7:23 PM
New Moon, 2% visible
METAR FHAW 091650Z 17016KT 9999 FEW016 SCT028 30/23 Q1013 BLU NOSIG
Pressure 29.92 in
Visibility 6.2 miles
Clouds Few 1600 ft
Scattered Clouds 2800 ft
Heat Index 93 °F
Dew Point 73 °F
Humidity 66%
Rainfall 0.00 in
Snow Depth Not available.
6:59 AM 7:23 PM
New Moon, 2% visible
METAR FHAW 091650Z 17016KT 9999 FEW016 SCT028 30/23 Q1013 BLU NOSIG

10-Day Weather Forecast

No radar image for this location.
×

Almanac

Astronomy

Feb. 09, 2016 Rise Set
Actual Time
Civil Twilight
Nautical Twilight
Astronomical Twilight
Moon
Length of Visible Light
Length of Day
Tomorrow will be .
, % of the Moon is Illuminated

Today's Extremes

Country Highs Country Lows

Community

WunderPhotos

Upload Photos

1,891,631 photos uploaded!

WunderBlog® & News

Nearby

Air Quality

  Air Quality AQ Index Pollutant
Not available.

Snow Depth

Station Depth Elevation

Earthquake Activity

City Distance Mag. Time & Date
Minimum magnitude displayed is 2.5.

Coastal Water Temperatures

Place Temperature

Stations

Nearby Weather Stations

Station Location Temp. Windchill Dew Point Humidity Wind Precip. Elev Updated Type